Terminal Aerodrome Forecast
Issued by NWS St Louis, MO

Home | Current Version | Previous Version | Graphics & Text | Print | Product List | Glossary On
Versions: 1 2 3 4 5 6 7 8 9 10 11 12 13 14 15 16 17 18 19 20 21 22 23 24 25 26 27 28 29 30 31 32 33 34 35
000
FTUS43 KLSX 281132
TAFSTL
TAF
KSTL 281132Z 2812/2918 17010KT P6SM FEW025 SCT150 BKN250
      TEMPO 2812/2815 BKN025
     FM281500 18012KT P6SM FEW025 SCT050 BKN150
     FM290300 20006KT P6SM VCTS BKN050CB
     FM290600 22006KT P6SM FEW050 SCT120
     FM291500 27006KT P6SM SKC=

USA.gov is the U.S. government's official web portal to all federal, state and local government web resources and services.